sensor_id;sensor_type;location;lat;lon;timestamp;temperature;humidity
35381;DHT22;21486;51.916;8.378;2022-12-10T00:01:52;-1.70;96.60
35381;DHT22;21486;51.916;8.378;2022-12-10T00:04:19;-1.70;96.60
35381;DHT22;21486;51.916;8.378;2022-12-10T00:06:45;-1.70;96.50
35381;DHT22;21486;51.916;8.378;2022-12-10T00:09:13;-1.70;96.50
35381;DHT22;21486;51.916;8.378;2022-12-10T00:11:39;-1.70;96.60
35381;DHT22;21486;51.916;8.378;2022-12-10T00:14:05;-1.70;96.70
35381;DHT22;21486;51.916;8.378;2022-12-10T00:16:32;-1.60;96.70
35381;DHT22;21486;51.916;8.378;2022-12-10T00:18:59;-1.50;96.80
35381;DHT22;21486;51.916;8.378;2022-12-10T00:21:27;-1.60;96.40
35381;DHT22;21486;51.916;8.378;2022-12-10T00:23:53;-1.50;96.60
35381;DHT22;21486;51.916;8.378;2022-12-10T00:26:25;-1.50;96.60
35381;DHT22;21486;51.916;8.378;2022-12-10T00:28:52;-1.50;96.80
35381;DHT22;21486;51.916;8.378;2022-12-10T00:31:20;-1.50;96.80
35381;DHT22;21486;51.916;8.378;2022-12-10T00:33:46;-1.40;96.90
35381;DHT22;21486;51.916;8.378;2022-12-10T00:36:14;-1.40;96.80
35381;DHT22;21486;51.916;8.378;2022-12-10T00:38:40;-1.30;96.90
35381;DHT22;21486;51.916;8.378;2022-12-10T00:41:06;-1.30;96.50
35381;DHT22;21486;51.916;8.378;2022-12-10T00:43:32;-1.30;96.60
35381;DHT22;21486;51.916;8.378;2022-12-10T00:45:58;-1.10;96.40
35381;DHT22;21486;51.916;8.378;2022-12-10T00:48:23;-1.10;95.90
35381;DHT22;21486;51.916;8.378;2022-12-10T00:51:07;-1.10;95.90
35381;DHT22;21486;51.916;8.378;2022-12-10T00:53:34;-1.10;96.10
35381;DHT22;21486;51.916;8.378;2022-12-10T00:56:01;-1.10;96.30
35381;DHT22;21486;51.916;8.378;2022-12-10T00:58:30;-1.10;96.40
35381;DHT22;21486;51.916;8.378;2022-12-10T01:01:34;-1.00;96.60
35381;DHT22;21486;51.916;8.378;2022-12-10T01:04:06;-0.90;96.20
35381;DHT22;21486;51.916;8.378;2022-12-10T01:06:34;-1.00;96.40
35381;DHT22;21486;51.916;8.378;2022-12-10T01:09:05;-0.90;96.40
35381;DHT22;21486;51.916;8.378;2022-12-10T01:11:34;-0.90;96.30
35381;DHT22;21486;51.916;8.378;2022-12-10T01:14:00;-0.90;96.30
35381;DHT22;21486;51.916;8.378;2022-12-10T01:16:26;-0.80;96.20
35381;DHT22;21486;51.916;8.378;2022-12-10T01:18:54;-0.80;96.20
35381;DHT22;21486;51.916;8.378;2022-12-10T01:21:20;-0.90;96.50
35381;DHT22;21486;51.916;8.378;2022-12-10T01:23:48;-0.80;96.80
35381;DHT22;21486;51.916;8.378;2022-12-10T01:26:17;-0.90;96.70
35381;DHT22;21486;51.916;8.378;2022-12-10T01:28:43;-0.90;96.50
35381;DHT22;21486;51.916;8.378;2022-12-10T01:33:02;-0.90;96.50
35381;DHT22;21486;51.916;8.378;2022-12-10T01:35:27;-0.70;96.50
35381;DHT22;21486;51.916;8.378;2022-12-10T01:37:53;-0.80;96.30
35381;DHT22;21486;51.916;8.378;2022-12-10T01:40:19;-0.80;96.50
35381;DHT22;21486;51.916;8.378;2022-12-10T01:42:44;-0.80;96.60
35381;DHT22;21486;51.916;8.378;2022-12-10T01:45:12;-0.80;96.70
35381;DHT22;21486;51.916;8.378;2022-12-10T01:47:38;-0.80;96.80
35381;DHT22;21486;51.916;8.378;2022-12-10T01:50:05;-0.80;96.90
35381;DHT22;21486;51.916;8.378;2022-12-10T01:52:31;-0.80;96.80
35381;DHT22;21486;51.916;8.378;2022-12-10T01:54:56;-0.80;97.00
35381;DHT22;21486;51.916;8.378;2022-12-10T01:57:26;-0.80;96.90
35381;DHT22;21486;51.916;8.378;2022-12-10T01:59:55;-0.80;97.00
35381;DHT22;21486;51.916;8.378;2022-12-10T02:05:11;-0.80;97.10
35381;DHT22;21486;51.916;8.378;2022-12-10T02:08:37;-0.80;97.20
35381;DHT22;21486;51.916;8.378;2022-12-10T02:11:08;-0.70;97.20
35381;DHT22;21486;51.916;8.378;2022-12-10T02:13:47;-0.60;96.90
35381;DHT22;21486;51.916;8.378;2022-12-10T02:16:36;-0.60;96.50
35381;DHT22;21486;51.916;8.378;2022-12-10T02:21:42;-0.60;96.60
35381;DHT22;21486;51.916;8.378;2022-12-10T02:24:12;-0.50;96.80
35381;DHT22;21486;51.916;8.378;2022-12-10T02:26:50;-0.50;96.40
35381;DHT22;21486;51.916;8.378;2022-12-10T02:29:20;-0.40;96.10
35381;DHT22;21486;51.916;8.378;2022-12-10T02:31:50;-0.50;96.20
35381;DHT22;21486;51.916;8.378;2022-12-10T02:34:18;-0.40;96.20
35381;DHT22;21486;51.916;8.378;2022-12-10T02:36:46;-0.30;95.90
35381;DHT22;21486;51.916;8.378;2022-12-10T02:39:16;-0.30;95.70
35381;DHT22;21486;51.916;8.378;2022-12-10T02:41:49;-0.30;96.20
35381;DHT22;21486;51.916;8.378;2022-12-10T02:44:19;-0.40;96.00
35381;DHT22;21486;51.916;8.378;2022-12-10T02:46:47;-0.30;96.00
35381;DHT22;21486;51.916;8.378;2022-12-10T02:49:15;-0.40;96.10
35381;DHT22;21486;51.916;8.378;2022-12-10T02:51:41;-0.30;96.20
35381;DHT22;21486;51.916;8.378;2022-12-10T02:57:16;-0.50;96.50
35381;DHT22;21486;51.916;8.378;2022-12-10T03:00:05;-0.50;96.40
35381;DHT22;21486;51.916;8.378;2022-12-10T03:02:43;-0.50;96.30
35381;DHT22;21486;51.916;8.378;2022-12-10T03:10:33;-0.50;97.10
35381;DHT22;21486;51.916;8.378;2022-12-10T03:13:03;-0.40;96.60
35381;DHT22;21486;51.916;8.378;2022-12-10T03:15:34;-0.40;96.40
35381;DHT22;21486;51.916;8.378;2022-12-10T03:18:02;-0.40;96.60
35381;DHT22;21486;51.916;8.378;2022-12-10T03:20:31;-0.50;96.70
35381;DHT22;21486;51.916;8.378;2022-12-10T03:22:57;-0.50;96.80
35381;DHT22;21486;51.916;8.378;2022-12-10T03:25:25;-0.50;96.70
35381;DHT22;21486;51.916;8.378;2022-12-10T03:27:54;-0.50;96.90
35381;DHT22;21486;51.916;8.378;2022-12-10T03:30:20;-0.40;97.00
35381;DHT22;21486;51.916;8.378;2022-12-10T03:32:46;-0.50;96.70
35381;DHT22;21486;51.916;8.378;2022-12-10T03:35:13;-0.50;97.00
35381;DHT22;21486;51.916;8.378;2022-12-10T03:37:40;-0.40;97.10
35381;DHT22;21486;51.916;8.378;2022-12-10T03:40:06;-0.20;96.30
35381;DHT22;21486;51.916;8.378;2022-12-10T03:42:36;-0.10;96.00
35381;DHT22;21486;51.916;8.378;2022-12-10T03:45:02;-0.20;96.10
35381;DHT22;21486;51.916;8.378;2022-12-10T03:47:28;-0.20;96.20
35381;DHT22;21486;51.916;8.378;2022-12-10T03:49:53;-0.30;96.50
35381;DHT22;21486;51.916;8.378;2022-12-10T03:52:19;-0.30;96.10
35381;DHT22;21486;51.916;8.378;2022-12-10T03:54:45;-0.30;96.20
35381;DHT22;21486;51.916;8.378;2022-12-10T03:57:10;-0.30;96.40
35381;DHT22;21486;51.916;8.378;2022-12-10T03:59:36;-0.30;96.40
35381;DHT22;21486;51.916;8.378;2022-12-10T04:02:01;-0.20;96.60
35381;DHT22;21486;51.916;8.378;2022-12-10T04:04:27;-0.10;96.10
35381;DHT22;21486;51.916;8.378;2022-12-10T04:06:53;0.00;96.00
35381;DHT22;21486;51.916;8.378;2022-12-10T04:09:18;-0.20;96.20
35381;DHT22;21486;51.916;8.378;2022-12-10T04:11:44;-0.30;96.20
35381;DHT22;21486;51.916;8.378;2022-12-10T04:14:11;-0.20;96.00
35381;DHT22;21486;51.916;8.378;2022-12-10T04:16:55;-0.40;96.10
35381;DHT22;21486;51.916;8.378;2022-12-10T04:19:21;-0.40;96.40
35381;DHT22;21486;51.916;8.378;2022-12-10T04:21:47;-0.40;96.80
35381;DHT22;21486;51.916;8.378;2022-12-10T04:24:34;-0.30;96.90
35381;DHT22;21486;51.916;8.378;2022-12-10T04:29:50;-0.10;96.10
35381;DHT22;21486;51.916;8.378;2022-12-10T04:32:16;-0.10;96.20
35381;DHT22;21486;51.916;8.378;2022-12-10T04:34:42;-0.20;96.20
35381;DHT22;21486;51.916;8.378;2022-12-10T04:37:08;-0.20;96.50
35381;DHT22;21486;51.916;8.378;2022-12-10T04:39:34;-0.20;96.60
35381;DHT22;21486;51.916;8.378;2022-12-10T04:42:00;-0.10;96.60
35381;DHT22;21486;51.916;8.378;2022-12-10T04:44:26;-0.10;96.80
35381;DHT22;21486;51.916;8.378;2022-12-10T04:46:52;-0.10;96.40
35381;DHT22;21486;51.916;8.378;2022-12-10T04:49:17;-0.20;96.30
35381;DHT22;21486;51.916;8.378;2022-12-10T04:51:43;-0.10;96.60
35381;DHT22;21486;51.916;8.378;2022-12-10T04:54:09;-0.20;96.90
35381;DHT22;21486;51.916;8.378;2022-12-10T04:56:35;-0.20;96.90
35381;DHT22;21486;51.916;8.378;2022-12-10T04:59:02;-0.20;96.80
35381;DHT22;21486;51.916;8.378;2022-12-10T05:01:28;-0.20;96.80
35381;DHT22;21486;51.916;8.378;2022-12-10T05:03:54;-0.10;96.90
35381;DHT22;21486;51.916;8.378;2022-12-10T05:06:20;-0.10;96.90
35381;DHT22;21486;51.916;8.378;2022-12-10T05:08:46;-0.10;96.90
35381;DHT22;21486;51.916;8.378;2022-12-10T05:11:18;0.10;96.60
35381;DHT22;21486;51.916;8.378;2022-12-10T05:13:44;0.00;96.40
35381;DHT22;21486;51.916;8.378;2022-12-10T05:16:12;0.00;96.10
35381;DHT22;21486;51.916;8.378;2022-12-10T05:18:38;0.10;96.00
35381;DHT22;21486;51.916;8.378;2022-12-10T05:21:06;0.00;96.00
35381;DHT22;21486;51.916;8.378;2022-12-10T05:23:35;0.00;95.90
35381;DHT22;21486;51.916;8.378;2022-12-10T05:26:09;0.00;96.20
35381;DHT22;21486;51.916;8.378;2022-12-10T05:28:50;0.00;96.20
35381;DHT22;21486;51.916;8.378;2022-12-10T05:31:28;-0.10;96.00
35381;DHT22;21486;51.916;8.378;2022-12-10T05:33:55;-0.20;96.00
35381;DHT22;21486;51.916;8.378;2022-12-10T05:36:24;-0.30;96.20
35381;DHT22;21486;51.916;8.378;2022-12-10T05:38:50;-0.20;96.30
35381;DHT22;21486;51.916;8.378;2022-12-10T05:41:33;-0.10;96.20
35381;DHT22;21486;51.916;8.378;2022-12-10T05:43:59;-0.30;96.30
35381;DHT22;21486;51.916;8.378;2022-12-10T05:46:27;-0.20;96.40
35381;DHT22;21486;51.916;8.378;2022-12-10T05:48:53;-0.10;96.40
35381;DHT22;21486;51.916;8.378;2022-12-10T05:51:22;-0.20;96.20
35381;DHT22;21486;51.916;8.378;2022-12-10T05:53:48;-0.10;96.40
35381;DHT22;21486;51.916;8.378;2022-12-10T05:56:16;-0.10;96.00
35381;DHT22;21486;51.916;8.378;2022-12-10T05:58:44;-0.20;96.10
35381;DHT22;21486;51.916;8.378;2022-12-10T06:01:13;-0.20;96.10
35381;DHT22;21486;51.916;8.378;2022-12-10T06:03:39;-0.20;96.00
35381;DHT22;21486;51.916;8.378;2022-12-10T06:06:05;-0.10;96.10
35381;DHT22;21486;51.916;8.378;2022-12-10T06:08:32;0.00;95.80
35381;DHT22;21486;51.916;8.378;2022-12-10T06:11:06;0.00;95.80
35381;DHT22;21486;51.916;8.378;2022-12-10T06:13:32;0.10;95.50
35381;DHT22;21486;51.916;8.378;2022-12-10T06:15:58;-0.10;95.00
35381;DHT22;21486;51.916;8.378;2022-12-10T06:18:23;0.00;95.20
35381;DHT22;21486;51.916;8.378;2022-12-10T06:20:49;0.00;95.30
35381;DHT22;21486;51.916;8.378;2022-12-10T06:23:14;0.00;95.40
35381;DHT22;21486;51.916;8.378;2022-12-10T06:25:40;0.00;95.40
35381;DHT22;21486;51.916;8.378;2022-12-10T06:28:06;0.00;95.30
35381;DHT22;21486;51.916;8.378;2022-12-10T06:30:33;-0.10;95.50
35381;DHT22;21486;51.916;8.378;2022-12-10T06:32:59;0.00;95.70
35381;DHT22;21486;51.916;8.378;2022-12-10T06:35:25;0.00;95.30
35381;DHT22;21486;51.916;8.378;2022-12-10T06:37:51;0.00;95.10
35381;DHT22;21486;51.916;8.378;2022-12-10T06:40:17;-0.10;95.10
35381;DHT22;21486;51.916;8.378;2022-12-10T06:42:43;-0.20;95.40
35381;DHT22;21486;51.916;8.378;2022-12-10T06:45:08;-0.10;95.50
35381;DHT22;21486;51.916;8.378;2022-12-10T06:47:34;-0.20;95.40
35381;DHT22;21486;51.916;8.378;2022-12-10T06:50:00;-0.20;95.50
35381;DHT22;21486;51.916;8.378;2022-12-10T06:52:25;0.00;95.30
35381;DHT22;21486;51.916;8.378;2022-12-10T06:54:51;-0.20;95.20
35381;DHT22;21486;51.916;8.378;2022-12-10T06:57:16;-0.20;95.40
35381;DHT22;21486;51.916;8.378;2022-12-10T06:59:42;-0.20;95.60
35381;DHT22;21486;51.916;8.378;2022-12-10T07:02:09;-0.20;95.70
35381;DHT22;21486;51.916;8.378;2022-12-10T07:04:35;-0.10;95.50
35381;DHT22;21486;51.916;8.378;2022-12-10T07:07:00;-0.10;95.40
35381;DHT22;21486;51.916;8.378;2022-12-10T07:09:26;-0.10;95.50
35381;DHT22;21486;51.916;8.378;2022-12-10T07:11:52;-0.20;95.20
35381;DHT22;21486;51.916;8.378;2022-12-10T07:14:17;-0.30;95.30
35381;DHT22;21486;51.916;8.378;2022-12-10T07:16:43;-0.40;95.40
35381;DHT22;21486;51.916;8.378;2022-12-10T07:19:10;-0.40;95.40
35381;DHT22;21486;51.916;8.378;2022-12-10T07:21:40;-0.50;95.30
35381;DHT22;21486;51.916;8.378;2022-12-10T07:24:11;-0.60;95.40
35381;DHT22;21486;51.916;8.378;2022-12-10T07:26:39;-0.60;95.70
35381;DHT22;21486;51.916;8.378;2022-12-10T07:29:06;-0.60;95.90
35381;DHT22;21486;51.916;8.378;2022-12-10T07:31:34;-0.60;96.00
35381;DHT22;21486;51.916;8.378;2022-12-10T07:34:00;-0.60;96.10
35381;DHT22;21486;51.916;8.378;2022-12-10T07:36:27;-0.50;96.00
35381;DHT22;21486;51.916;8.378;2022-12-10T07:38:53;-0.50;95.80
35381;DHT22;21486;51.916;8.378;2022-12-10T07:41:20;-0.50;95.90
35381;DHT22;21486;51.916;8.378;2022-12-10T07:43:46;-0.50;95.70
35381;DHT22;21486;51.916;8.378;2022-12-10T07:46:16;-0.50;95.70
35381;DHT22;21486;51.916;8.378;2022-12-10T07:48:44;-0.50;95.80
35381;DHT22;21486;51.916;8.378;2022-12-10T07:51:10;-0.40;96.00
35381;DHT22;21486;51.916;8.378;2022-12-10T07:53:36;-0.30;95.60
35381;DHT22;21486;51.916;8.378;2022-12-10T07:56:02;-0.30;95.30
35381;DHT22;21486;51.916;8.378;2022-12-10T07:58:28;-0.40;95.20
35381;DHT22;21486;51.916;8.378;2022-12-10T08:00:54;-0.40;95.60
35381;DHT22;21486;51.916;8.378;2022-12-10T08:03:19;-0.40;95.60
35381;DHT22;21486;51.916;8.378;2022-12-10T08:05:45;-0.40;95.60
35381;DHT22;21486;51.916;8.378;2022-12-10T08:08:11;-0.30;95.60
35381;DHT22;21486;51.916;8.378;2022-12-10T08:10:37;-0.50;95.70
35381;DHT22;21486;51.916;8.378;2022-12-10T08:13:04;-0.40;95.90
35381;DHT22;21486;51.916;8.378;2022-12-10T08:15:30;-0.40;95.70
35381;DHT22;21486;51.916;8.378;2022-12-10T08:17:55;-0.30;95.60
35381;DHT22;21486;51.916;8.378;2022-12-10T08:20:22;-0.30;95.50
35381;DHT22;21486;51.916;8.378;2022-12-10T08:22:48;-0.20;95.40
35381;DHT22;21486;51.916;8.378;2022-12-10T08:25:13;-0.30;95.40
35381;DHT22;21486;51.916;8.378;2022-12-10T08:27:39;-0.30;95.50
35381;DHT22;21486;51.916;8.378;2022-12-10T08:30:05;-0.20;95.20
35381;DHT22;21486;51.916;8.378;2022-12-10T08:32:31;-0.30;94.70
35381;DHT22;21486;51.916;8.378;2022-12-10T08:34:56;-0.30;94.90
35381;DHT22;21486;51.916;8.378;2022-12-10T08:37:22;-0.30;95.10
35381;DHT22;21486;51.916;8.378;2022-12-10T08:39:47;-0.30;94.90
35381;DHT22;21486;51.916;8.378;2022-12-10T08:42:13;-0.30;94.60
35381;DHT22;21486;51.916;8.378;2022-12-10T08:44:39;-0.30;95.00
35381;DHT22;21486;51.916;8.378;2022-12-10T08:47:04;-0.30;94.80
35381;DHT22;21486;51.916;8.378;2022-12-10T08:49:30;-0.30;95.00
35381;DHT22;21486;51.916;8.378;2022-12-10T08:51:55;-0.20;95.00
35381;DHT22;21486;51.916;8.378;2022-12-10T08:54:21;-0.20;95.00
35381;DHT22;21486;51.916;8.378;2022-12-10T08:56:47;-0.10;94.80
35381;DHT22;21486;51.916;8.378;2022-12-10T08:59:12;-0.10;94.60
35381;DHT22;21486;51.916;8.378;2022-12-10T09:01:38;0.00;94.50
35381;DHT22;21486;51.916;8.378;2022-12-10T09:04:04;0.00;94.50
35381;DHT22;21486;51.916;8.378;2022-12-10T09:06:29;0.00;94.30
35381;DHT22;21486;51.916;8.378;2022-12-10T09:08:56;0.00;94.10
35381;DHT22;21486;51.916;8.378;2022-12-10T09:11:26;0.10;94.30
35381;DHT22;21486;51.916;8.378;2022-12-10T09:13:53;0.10;94.10
35381;DHT22;21486;51.916;8.378;2022-12-10T09:16:19;0.10;93.90
35381;DHT22;21486;51.916;8.378;2022-12-10T09:18:44;0.20;93.40
35381;DHT22;21486;51.916;8.378;2022-12-10T09:21:16;0.20;93.50
35381;DHT22;21486;51.916;8.378;2022-12-10T09:23:43;0.20;93.60
35381;DHT22;21486;51.916;8.378;2022-12-10T09:26:11;0.20;93.70
35381;DHT22;21486;51.916;8.378;2022-12-10T09:28:37;0.20;93.60
35381;DHT22;21486;51.916;8.378;2022-12-10T09:31:05;0.20;93.60
35381;DHT22;21486;51.916;8.378;2022-12-10T09:33:31;0.20;93.40
35381;DHT22;21486;51.916;8.378;2022-12-10T09:35:58;0.30;93.60
35381;DHT22;21486;51.916;8.378;2022-12-10T09:38:24;0.30;93.30
35381;DHT22;21486;51.916;8.378;2022-12-10T09:41:02;0.30;93.30
35381;DHT22;21486;51.916;8.378;2022-12-10T09:43:47;0.20;93.10
35381;DHT22;21486;51.916;8.378;2022-12-10T09:46:51;0.20;93.40
35381;DHT22;21486;51.916;8.378;2022-12-10T09:52:16;0.30;93.90
35381;DHT22;21486;51.916;8.378;2022-12-10T09:54:48;0.30;93.40
35381;DHT22;21486;51.916;8.378;2022-12-10T09:57:37;0.20;93.50
35381;DHT22;21486;51.916;8.378;2022-12-10T10:00:15;0.20;93.50
35381;DHT22;21486;51.916;8.378;2022-12-10T10:02:43;0.40;92.80
35381;DHT22;21486;51.916;8.378;2022-12-10T10:07:38;0.50;92.30
35381;DHT22;21486;51.916;8.378;2022-12-10T10:10:11;0.50;91.90
35381;DHT22;21486;51.916;8.378;2022-12-10T10:12:42;0.40;92.00
35381;DHT22;21486;51.916;8.378;2022-12-10T10:15:16;0.50;92.40
35381;DHT22;21486;51.916;8.378;2022-12-10T10:17:44;0.50;92.50
35381;DHT22;21486;51.916;8.378;2022-12-10T10:20:13;0.60;92.10
35381;DHT22;21486;51.916;8.378;2022-12-10T10:22:39;0.60;92.30
35381;DHT22;21486;51.916;8.378;2022-12-10T10:25:15;0.70;92.00
35381;DHT22;21486;51.916;8.378;2022-12-10T10:27:42;0.70;92.10
35381;DHT22;21486;51.916;8.378;2022-12-10T10:30:15;0.70;92.10
35381;DHT22;21486;51.916;8.378;2022-12-10T10:35:09;0.80;91.70
35381;DHT22;21486;51.916;8.378;2022-12-10T10:37:44;1.00;91.40
35381;DHT22;21486;51.916;8.378;2022-12-10T10:40:24;1.00;91.30
35381;DHT22;21486;51.916;8.378;2022-12-10T10:42:53;1.00;91.20
35381;DHT22;21486;51.916;8.378;2022-12-10T10:48:17;1.10;91.00
35381;DHT22;21486;51.916;8.378;2022-12-10T10:50:47;1.00;91.00
35381;DHT22;21486;51.916;8.378;2022-12-10T10:53:44;1.00;91.10
35381;DHT22;21486;51.916;8.378;2022-12-10T10:56:16;1.20;90.30
35381;DHT22;21486;51.916;8.378;2022-12-10T11:01:25;1.10;89.50
35381;DHT22;21486;51.916;8.378;2022-12-10T11:03:58;1.10;90.00
35381;DHT22;21486;51.916;8.378;2022-12-10T11:06:25;1.10;89.10
35381;DHT22;21486;51.916;8.378;2022-12-10T11:08:56;1.20;89.00
35381;DHT22;21486;51.916;8.378;2022-12-10T11:11:31;1.30;89.50
35381;DHT22;21486;51.916;8.378;2022-12-10T11:14:24;1.40;88.30
35381;DHT22;21486;51.916;8.378;2022-12-10T11:17:02;1.40;87.70
35381;DHT22;21486;51.916;8.378;2022-12-10T11:19:29;1.40;86.30
35381;DHT22;21486;51.916;8.378;2022-12-10T11:22:16;1.40;87.40
35381;DHT22;21486;51.916;8.378;2022-12-10T11:24:42;1.30;87.70
35381;DHT22;21486;51.916;8.378;2022-12-10T11:27:14;1.40;88.30
35381;DHT22;21486;51.916;8.378;2022-12-10T11:41:09;1.70;81.60
35381;DHT22;21486;51.916;8.378;2022-12-10T11:51:57;1.60;79.30
35381;DHT22;21486;51.916;8.378;2022-12-10T12:05:32;1.70;79.70
35381;DHT22;21486;51.916;8.378;2022-12-10T12:10:55;1.80;76.20
35381;DHT22;21486;51.916;8.378;2022-12-10T12:13:30;1.90;75.30
35381;DHT22;21486;51.916;8.378;2022-12-10T12:16:13;1.70;72.90
35381;DHT22;21486;51.916;8.378;2022-12-10T12:21:11;1.40;75.90
35381;DHT22;21486;51.916;8.378;2022-12-10T12:26:08;1.50;76.30
35381;DHT22;21486;51.916;8.378;2022-12-10T12:28:46;1.60;75.40
35381;DHT22;21486;51.916;8.378;2022-12-10T12:31:20;1.60;76.30
35381;DHT22;21486;51.916;8.378;2022-12-10T12:33:59;1.70;73.30
35381;DHT22;21486;51.916;8.378;2022-12-10T12:36:33;1.60;74.10
35381;DHT22;21486;51.916;8.378;2022-12-10T12:42:01;1.40;72.90
35381;DHT22;21486;51.916;8.378;2022-12-10T12:50:23;1.50;74.50
35381;DHT22;21486;51.916;8.378;2022-12-10T12:52:56;1.80;77.70
35381;DHT22;21486;51.916;8.378;2022-12-10T12:55:31;1.80;75.50
35381;DHT22;21486;51.916;8.378;2022-12-10T13:00:56;1.60;75.10
35381;DHT22;21486;51.916;8.378;2022-12-10T13:03:44;1.50;77.00
35381;DHT22;21486;51.916;8.378;2022-12-10T13:06:19;1.60;76.20
35381;DHT22;21486;51.916;8.378;2022-12-10T13:08:52;1.50;78.50
35381;DHT22;21486;51.916;8.378;2022-12-10T13:11:28;1.50;77.70
35381;DHT22;21486;51.916;8.378;2022-12-10T13:14:13;1.30;75.70
35381;DHT22;21486;51.916;8.378;2022-12-10T13:43:25;1.10;79.30
35381;DHT22;21486;51.916;8.378;2022-12-10T13:46:30;1.10;78.30
35381;DHT22;21486;51.916;8.378;2022-12-10T13:49:04;1.10;78.30
35381;DHT22;21486;51.916;8.378;2022-12-10T13:54:43;1.10;80.10
35381;DHT22;21486;51.916;8.378;2022-12-10T13:57:41;1.10;79.00
35381;DHT22;21486;51.916;8.378;2022-12-10T14:00:19;1.10;79.90
35381;DHT22;21486;51.916;8.378;2022-12-10T14:05:53;1.00;80.70
35381;DHT22;21486;51.916;8.378;2022-12-10T14:08:26;1.00;80.20
35381;DHT22;21486;51.916;8.378;2022-12-10T14:10:53;1.10;79.20
35381;DHT22;21486;51.916;8.378;2022-12-10T14:13:31;1.00;79.70
35381;DHT22;21486;51.916;8.378;2022-12-10T14:16:00;1.10;80.00
35381;DHT22;21486;51.916;8.378;2022-12-10T14:18:27;1.40;78.40
35381;DHT22;21486;51.916;8.378;2022-12-10T14:20:55;1.30;79.80
35381;DHT22;21486;51.916;8.378;2022-12-10T14:23:30;1.30;80.00
35381;DHT22;21486;51.916;8.378;2022-12-10T14:26:28;1.20;80.00
35381;DHT22;21486;51.916;8.378;2022-12-10T14:29:00;1.20;79.50
35381;DHT22;21486;51.916;8.378;2022-12-10T14:31:30;1.10;80.00
35381;DHT22;21486;51.916;8.378;2022-12-10T14:34:14;1.20;80.00
35381;DHT22;21486;51.916;8.378;2022-12-10T14:36:49;1.20;81.00
35381;DHT22;21486;51.916;8.378;2022-12-10T14:39:17;1.20;79.80
35381;DHT22;21486;51.916;8.378;2022-12-10T14:41:45;1.10;79.40
35381;DHT22;21486;51.916;8.378;2022-12-10T14:44:15;1.20;80.60
35381;DHT22;21486;51.916;8.378;2022-12-10T14:46:48;1.20;80.40
35381;DHT22;21486;51.916;8.378;2022-12-10T14:49:19;1.30;80.90
35381;DHT22;21486;51.916;8.378;2022-12-10T14:51:45;1.10;80.50
35381;DHT22;21486;51.916;8.378;2022-12-10T14:54:34;1.00;82.20
35381;DHT22;21486;51.916;8.378;2022-12-10T14:57:04;0.90;82.70
35381;DHT22;21486;51.916;8.378;2022-12-10T15:02:02;0.90;83.70
35381;DHT22;21486;51.916;8.378;2022-12-10T15:04:41;1.00;84.20
35381;DHT22;21486;51.916;8.378;2022-12-10T15:07:23;1.00;83.10
35381;DHT22;21486;51.916;8.378;2022-12-10T15:09:50;0.90;83.70
35381;DHT22;21486;51.916;8.378;2022-12-10T15:12:31;0.80;85.20
35381;DHT22;21486;51.916;8.378;2022-12-10T15:15:36;0.80;86.00
35381;DHT22;21486;51.916;8.378;2022-12-10T15:18:16;0.70;85.90
35381;DHT22;21486;51.916;8.378;2022-12-10T15:26:24;0.80;86.80
35381;DHT22;21486;51.916;8.378;2022-12-10T15:31:49;0.80;86.80
35381;DHT22;21486;51.916;8.378;2022-12-10T15:34:16;0.80;85.90
35381;DHT22;21486;51.916;8.378;2022-12-10T15:36:54;0.60;86.10
35381;DHT22;21486;51.916;8.378;2022-12-10T15:41:59;0.50;87.50
35381;DHT22;21486;51.916;8.378;2022-12-10T15:47:24;0.50;87.50
35381;DHT22;21486;51.916;8.378;2022-12-10T15:49:53;0.50;87.70
35381;DHT22;21486;51.916;8.378;2022-12-10T15:52:23;0.60;87.30
35381;DHT22;21486;51.916;8.378;2022-12-10T15:54:57;0.50;87.40
35381;DHT22;21486;51.916;8.378;2022-12-10T15:57:33;0.50;87.50
35381;DHT22;21486;51.916;8.378;2022-12-10T16:00:08;0.40;87.60
35381;DHT22;21486;51.916;8.378;2022-12-10T16:02:57;0.40;88.30
35381;DHT22;21486;51.916;8.378;2022-12-10T16:05:34;0.50;88.50
35381;DHT22;21486;51.916;8.378;2022-12-10T16:08:11;0.60;88.50
35381;DHT22;21486;51.916;8.378;2022-12-10T16:10:38;0.70;86.80
35381;DHT22;21486;51.916;8.378;2022-12-10T16:13:06;0.60;87.20
35381;DHT22;21486;51.916;8.378;2022-12-10T16:15:48;0.70;87.20
35381;DHT22;21486;51.916;8.378;2022-12-10T16:18:15;0.60;87.80
35381;DHT22;21486;51.916;8.378;2022-12-10T16:20:46;0.70;87.40
35381;DHT22;21486;51.916;8.378;2022-12-10T16:23:12;0.60;87.70
35381;DHT22;21486;51.916;8.378;2022-12-10T16:25:40;0.60;88.10
35381;DHT22;21486;51.916;8.378;2022-12-10T16:28:11;0.60;87.70
35381;DHT22;21486;51.916;8.378;2022-12-10T16:30:45;0.40;88.60
35381;DHT22;21486;51.916;8.378;2022-12-10T16:33:12;0.40;89.00
35381;DHT22;21486;51.916;8.378;2022-12-10T16:35:38;0.40;89.00
35381;DHT22;21486;51.916;8.378;2022-12-10T16:38:04;0.40;89.40
35381;DHT22;21486;51.916;8.378;2022-12-10T16:40:30;0.40;89.90
35381;DHT22;21486;51.916;8.378;2022-12-10T16:42:56;0.30;88.50
35381;DHT22;21486;51.916;8.378;2022-12-10T16:45:29;0.40;88.70
35381;DHT22;21486;51.916;8.378;2022-12-10T16:47:55;0.30;88.70
35381;DHT22;21486;51.916;8.378;2022-12-10T16:50:21;0.40;88.70
35381;DHT22;21486;51.916;8.378;2022-12-10T16:52:51;0.30;88.90
35381;DHT22;21486;51.916;8.378;2022-12-10T16:55:28;0.40;88.70
35381;DHT22;21486;51.916;8.378;2022-12-10T16:58:15;0.50;88.50
35381;DHT22;21486;51.916;8.378;2022-12-10T17:00:46;0.60;88.50
35381;DHT22;21486;51.916;8.378;2022-12-10T17:03:13;0.60;87.90
35381;DHT22;21486;51.916;8.378;2022-12-10T17:05:54;0.50;88.70
35381;DHT22;21486;51.916;8.378;2022-12-10T17:08:21;0.40;89.80
35381;DHT22;21486;51.916;8.378;2022-12-10T17:10:48;0.30;89.40
35381;DHT22;21486;51.916;8.378;2022-12-10T17:13:43;0.40;89.50
35381;DHT22;21486;51.916;8.378;2022-12-10T17:16:22;0.50;89.10
35381;DHT22;21486;51.916;8.378;2022-12-10T17:18:48;0.50;88.70
35381;DHT22;21486;51.916;8.378;2022-12-10T17:21:13;0.40;89.50
35381;DHT22;21486;51.916;8.378;2022-12-10T17:23:39;0.30;90.10
35381;DHT22;21486;51.916;8.378;2022-12-10T17:26:05;0.30;90.00
35381;DHT22;21486;51.916;8.378;2022-12-10T17:28:31;0.20;90.00
35381;DHT22;21486;51.916;8.378;2022-12-10T17:30:57;0.20;90.20
35381;DHT22;21486;51.916;8.378;2022-12-10T17:33:24;0.10;90.30
35381;DHT22;21486;51.916;8.378;2022-12-10T17:38:36;0.20;90.60
35381;DHT22;21486;51.916;8.378;2022-12-10T17:41:02;0.20;90.50
35381;DHT22;21486;51.916;8.378;2022-12-10T17:43:30;0.20;90.40
35381;DHT22;21486;51.916;8.378;2022-12-10T17:45:56;0.20;90.50
35381;DHT22;21486;51.916;8.378;2022-12-10T17:48:22;0.20;90.50
35381;DHT22;21486;51.916;8.378;2022-12-10T17:50:48;0.20;90.40
35381;DHT22;21486;51.916;8.378;2022-12-10T17:53:14;0.20;90.50
35381;DHT22;21486;51.916;8.378;2022-12-10T17:55:45;0.20;90.50
35381;DHT22;21486;51.916;8.378;2022-12-10T17:58:13;0.20;90.40
35381;DHT22;21486;51.916;8.378;2022-12-10T18:00:39;0.10;90.50
35381;DHT22;21486;51.916;8.378;2022-12-10T18:03:05;0.10;90.30
35381;DHT22;21486;51.916;8.378;2022-12-10T18:05:31;0.10;90.40
35381;DHT22;21486;51.916;8.378;2022-12-10T18:07:57;0.10;90.40
35381;DHT22;21486;51.916;8.378;2022-12-10T18:10:32;0.10;90.50